Hensley, Arkansas
Current Conditions -  °F | °C
As of 3:53 PM on Thursday 27 Nov 2014 (Local Time) from KLIT Reporting Station
Few Clouds Few Clouds  
Wind Chill: 50°   Ceiling: Unl
Heat Index: 50°   Visibility: 10mi
Dew Point: 23°   Wind: 0mph
Humidity: 35%   Direction: NA
Pressure: 30.47"   Gusts: NA
Location:  34.51°N, 92.21°W
Report Text: KLIT 272153Z 00000KT 10SM FEW250 10/M05 A3047 RMK AO2 SLP322 T01001050
Loading
Personal Weather Stations






























Interactive Weather Map New forecast layout! Learn more

10-Day Weather Forecast

Advertisements
Track Severe Weather on mobile